createdAt,value
2023-10-19T00:02:17.056Z,1.76
2023-10-19T00:04:46.165Z,1.70
2023-10-19T00:07:17.634Z,1.65
2023-10-19T00:09:54.153Z,1.60
2023-10-19T00:12:23.737Z,1.58
2023-10-19T00:14:55.979Z,1.57
2023-10-19T00:17:28.707Z,1.56
2023-10-19T00:20:20.596Z,1.58
2023-10-19T00:22:50.122Z,1.55
2023-10-19T00:25:20.051Z,1.52
2023-10-19T00:27:50.162Z,1.44
2023-10-19T00:30:24.857Z,1.38
2023-10-19T00:32:54.624Z,1.32
2023-10-19T00:35:28.732Z,1.31
2023-10-19T00:38:14.174Z,1.35
2023-10-19T00:40:47.204Z,1.44
2023-10-19T00:43:34.212Z,1.43
2023-10-19T00:46:10.112Z,1.41
2023-10-19T00:48:41.801Z,1.34
2023-10-19T00:51:11.125Z,1.30
2023-10-19T00:53:41.411Z,1.26
2023-10-19T00:56:11.586Z,1.26
2023-10-19T00:58:42.918Z,1.23
2023-10-19T01:01:12.562Z,1.25
2023-10-19T01:03:46.278Z,1.22
2023-10-19T01:06:15.402Z,1.19
2023-10-19T01:08:44.290Z,1.17
2023-10-19T01:11:17.077Z,1.16
2023-10-19T01:13:49.421Z,1.13
2023-10-19T01:16:22.756Z,1.10
2023-10-19T01:18:55.331Z,1.04
2023-10-19T01:21:39.224Z,1.01
2023-10-19T01:24:13.954Z,0.98
2023-10-19T01:26:43.839Z,0.96
2023-10-19T01:29:16.260Z,0.93
2023-10-19T01:32:03.908Z,0.89
2023-10-19T01:34:34.900Z,0.84
2023-10-19T01:37:05.469Z,0.79
2023-10-19T01:39:38.819Z,0.71
2023-10-19T01:42:10.033Z,0.62
2023-10-19T01:44:38.911Z,0.57
2023-10-19T01:47:08.507Z,0.53
2023-10-19T01:49:38.866Z,0.50
2023-10-19T01:52:08.144Z,0.47
2023-10-19T01:54:39.494Z,0.46
2023-10-19T01:57:10.096Z,0.43
2023-10-19T01:59:39.236Z,0.40
2023-10-19T02:02:11.205Z,0.37
2023-10-19T02:04:42.569Z,0.34
2023-10-19T02:07:19.468Z,0.31
2023-10-19T02:09:48.842Z,0.28
2023-10-19T02:12:20.519Z,0.25
2023-10-19T02:14:49.371Z,0.26
2023-10-19T02:17:18.837Z,0.27
2023-10-19T02:19:47.909Z,0.29
2023-10-19T02:22:18.658Z,0.27
2023-10-19T02:24:47.493Z,0.26
2023-10-19T02:27:30.355Z,0.27
2023-10-19T02:30:05.067Z,0.25
2023-10-19T02:32:34.905Z,0.30
2023-10-19T02:35:04.625Z,0.32
2023-10-19T02:37:33.719Z,0.32
2023-10-19T02:40:04.765Z,0.31
2023-10-19T02:42:34.025Z,0.31
2023-10-19T02:45:06.325Z,0.30
2023-10-19T02:47:36.340Z,0.28
2023-10-19T02:50:12.194Z,0.28
2023-10-19T02:52:42.690Z,0.27
2023-10-19T02:55:11.684Z,0.25
2023-10-19T02:57:40.586Z,0.23
2023-10-19T03:00:14.695Z,0.24
2023-10-19T03:02:43.692Z,0.20
2023-10-19T03:05:16.069Z,0.14
2023-10-19T03:07:45.814Z,0.04
2023-10-19T03:10:36.035Z,-0.02
2023-10-19T03:13:06.082Z,-0.16
2023-10-19T03:15:35.384Z,-0.23
2023-10-19T03:18:05.949Z,-0.27
2023-10-19T03:20:34.800Z,-0.29
2023-10-19T03:23:03.898Z,-0.29
2023-10-19T03:25:58.389Z,-0.29
2023-10-19T03:28:27.924Z,-0.28
2023-10-19T03:31:00.903Z,-0.26
2023-10-19T03:33:31.020Z,-0.25
2023-10-19T03:36:00.504Z,-0.24
2023-10-19T03:38:33.383Z,-0.25
2023-10-19T03:41:08.446Z,-0.26
2023-10-19T03:43:42.006Z,-0.25
2023-10-19T03:46:30.157Z,-0.24
2023-10-19T03:49:12.564Z,-0.24
2023-10-19T03:51:59.222Z,-0.27
2023-10-19T03:54:29.864Z,-0.30
2023-10-19T03:57:07.531Z,-0.31
2023-10-19T03:59:36.655Z,-0.34
2023-10-19T04:02:15.339Z,-0.35
2023-10-19T04:04:45.576Z,-0.37
2023-10-19T04:07:22.777Z,-0.40
2023-10-19T04:10:07.962Z,-0.42
2023-10-19T04:12:40.060Z,-0.43
2023-10-19T04:15:19.026Z,-0.45
2023-10-19T04:17:54.255Z,-0.46
2023-10-19T04:20:26.839Z,-0.45
2023-10-19T04:22:56.082Z,-0.44
2023-10-19T04:25:27.629Z,-0.40
2023-10-19T04:27:58.745Z,-0.40
2023-10-19T04:30:28.672Z,-0.40
2023-10-19T04:32:59.712Z,-0.39
2023-10-19T04:35:31.867Z,-0.36
2023-10-19T04:38:01.221Z,-0.36
2023-10-19T04:40:30.183Z,-0.30
2023-10-19T04:42:59.673Z,-0.27
2023-10-19T04:45:28.692Z,-0.23
2023-10-19T04:47:57.493Z,-0.21
2023-10-19T04:50:26.955Z,-0.19
2023-10-19T04:52:55.957Z,-0.17
2023-10-19T04:55:25.065Z,-0.12
2023-10-19T04:57:54.145Z,-0.06
2023-10-19T05:00:23.716Z,-0.01
2023-10-19T05:02:53.837Z,0.03
2023-10-19T05:05:22.869Z,0.08
2023-10-19T05:07:51.905Z,0.03
2023-10-19T05:10:21.369Z,0.16
2023-10-19T05:12:50.256Z,0.22
2023-10-19T05:15:20.089Z,0.27
2023-10-19T05:17:49.448Z,0.33
2023-10-19T05:20:18.474Z,0.38
2023-10-19T05:22:47.511Z,0.47
2023-10-19T05:25:16.660Z,0.57
2023-10-19T05:27:47.197Z,0.77
2023-10-19T05:30:16.401Z,0.96
2023-10-19T05:32:46.745Z,1.10
2023-10-19T05:35:24.212Z,1.45
2023-10-19T05:37:53.322Z,1.70
2023-10-19T05:40:25.222Z,1.84
2023-10-19T05:42:54.258Z,1.94
2023-10-19T05:45:23.250Z,2.14
2023-10-19T05:47:54.360Z,2.35
2023-10-19T05:50:23.305Z,2.43
2023-10-19T05:52:54.395Z,2.54
2023-10-19T05:55:25.835Z,2.68
2023-10-19T05:57:54.669Z,2.82
2023-10-19T06:00:27.295Z,2.92
2023-10-19T06:02:56.502Z,3.06
2023-10-19T06:05:25.681Z,3.16
2023-10-19T06:07:54.623Z,3.24
2023-10-19T06:10:24.435Z,3.31
2023-10-19T06:12:53.766Z,3.40
2023-10-19T06:15:26.224Z,3.53
2023-10-19T06:17:55.092Z,3.66
2023-10-19T06:20:30.589Z,3.79
2023-10-19T06:23:07.194Z,3.86
2023-10-19T06:25:36.518Z,3.87
2023-10-19T06:28:06.824Z,3.89
2023-10-19T06:30:35.768Z,4.03
2023-10-19T06:33:05.752Z,4.01
2023-10-19T06:35:37.779Z,4.03
2023-10-19T06:38:06.782Z,4.08
2023-10-19T06:40:39.252Z,4.22
2023-10-19T06:43:08.207Z,4.45
2023-10-19T06:45:37.332Z,4.59
2023-10-19T06:48:08.074Z,4.67
2023-10-19T06:50:37.853Z,4.82
2023-10-19T06:53:06.903Z,4.92
2023-10-19T06:55:36.298Z,5.00
2023-10-19T06:58:06.199Z,5.04
2023-10-19T07:00:36.197Z,5.09
2023-10-19T07:03:05.457Z,5.29
2023-10-19T07:05:34.317Z,5.53
2023-10-19T07:08:04.443Z,5.72
2023-10-19T07:10:34.053Z,5.88
2023-10-19T07:13:03.380Z,5.95
2023-10-19T07:15:33.151Z,6.06
2023-10-19T07:18:02.252Z,6.07
2023-10-19T07:20:33.557Z,6.10
2023-10-19T07:23:11.684Z,6.20
2023-10-19T07:25:46.526Z,6.26
2023-10-19T07:28:17.414Z,6.40
2023-10-19T07:30:47.666Z,6.55
2023-10-19T07:33:21.191Z,6.73
2023-10-19T07:36:01.643Z,6.96
2023-10-19T07:38:34.842Z,7.23
2023-10-19T07:41:03.741Z,7.45
2023-10-19T07:43:33.224Z,7.55
2023-10-19T07:46:03.041Z,7.71
2023-10-19T07:48:32.251Z,7.93
2023-10-19T07:51:01.181Z,8.12
2023-10-19T07:53:30.012Z,8.30
2023-10-19T07:55:59.037Z,8.41
2023-10-19T07:58:28.556Z,8.44
2023-10-19T08:00:58.371Z,8.57
2023-10-19T08:03:27.360Z,8.58
2023-10-19T08:05:56.434Z,8.67
2023-10-19T08:08:26.274Z,8.84
2023-10-19T08:10:55.254Z,8.89
2023-10-19T08:13:27.465Z,9.06
2023-10-19T08:15:58.381Z,9.18
2023-10-19T08:18:27.443Z,9.26
2023-10-19T08:20:56.312Z,9.38
2023-10-19T08:23:29.011Z,9.42
2023-10-19T08:25:58.109Z,9.60
2023-10-19T08:28:27.652Z,9.71
2023-10-19T08:31:02.277Z,9.83
2023-10-19T08:33:32.254Z,9.91
2023-10-19T08:36:04.304Z,9.94
2023-10-19T08:38:34.613Z,10.14
2023-10-19T08:41:03.482Z,10.20
2023-10-19T08:43:35.132Z,10.39
2023-10-19T08:46:05.091Z,10.59
2023-10-19T08:48:38.117Z,10.81
2023-10-19T08:51:12.056Z,10.92
2023-10-19T08:53:41.966Z,11.04
2023-10-19T08:56:13.324Z,11.21
2023-10-19T08:58:42.581Z,11.47
2023-10-19T09:01:11.675Z,11.53
2023-10-19T09:03:42.048Z,11.76
2023-10-19T09:06:14.003Z,11.96
2023-10-19T09:08:43.016Z,12.22
2023-10-19T09:11:15.504Z,12.40
2023-10-19T09:13:50.194Z,12.56
2023-10-19T09:16:23.880Z,12.70
2023-10-19T09:18:53.040Z,12.82
2023-10-19T09:21:25.503Z,12.90
2023-10-19T09:23:58.790Z,12.99
2023-10-19T09:26:28.302Z,13.18
2023-10-19T09:28:57.177Z,13.30
2023-10-19T09:31:26.335Z,13.40
2023-10-19T09:33:58.604Z,13.49
2023-10-19T09:36:29.004Z,13.69
2023-10-19T09:38:59.492Z,13.82
2023-10-19T09:41:31.070Z,13.90
2023-10-19T09:44:12.236Z,13.98
2023-10-19T09:46:42.484Z,14.05
2023-10-19T09:49:14.925Z,14.04
2023-10-19T09:51:55.157Z,14.12
2023-10-19T09:55:30.156Z,14.19
2023-10-19T09:58:17.141Z,14.46
2023-10-19T10:00:50.726Z,14.66
2023-10-19T10:03:54.821Z,14.73
2023-10-19T10:06:55.016Z,14.85
2023-10-19T10:09:27.450Z,15.02
2023-10-19T10:11:57.839Z,15.32
2023-10-19T10:14:33.379Z,15.61
2023-10-19T10:17:04.282Z,15.69
2023-10-19T10:19:33.318Z,15.91
2023-10-19T10:22:22.332Z,15.92
2023-10-19T10:24:57.488Z,16.37
2023-10-19T10:27:27.137Z,16.77
2023-10-19T10:30:00.561Z,17.37
2023-10-19T10:32:57.782Z,17.33
2023-10-19T10:35:38.909Z,17.09
2023-10-19T10:38:15.567Z,16.60
2023-10-19T10:40:49.569Z,16.66
2023-10-19T10:43:20.780Z,16.70
2023-10-19T10:45:49.988Z,16.92
2023-10-19T10:48:20.648Z,16.61
2023-10-19T10:50:49.697Z,16.91
2023-10-19T10:53:20.868Z,17.09
2023-10-19T10:55:49.787Z,17.33
2023-10-19T10:58:19.774Z,17.58
2023-10-19T11:00:50.659Z,17.23
2023-10-19T11:03:19.622Z,17.51
2023-10-19T11:05:48.840Z,17.64
2023-10-19T11:08:18.758Z,18.63
2023-10-19T11:10:49.612Z,18.80
2023-10-19T11:13:24.958Z,19.19
2023-10-19T11:15:59.884Z,19.21
2023-10-19T11:18:47.467Z,18.93
2023-10-19T11:21:16.455Z,19.51
2023-10-19T11:23:48.071Z,19.75
2023-10-19T11:26:27.994Z,19.50
2023-10-19T11:29:07.228Z,19.51
2023-10-19T11:31:42.970Z,19.64
2023-10-19T11:34:12.250Z,19.12
2023-10-19T11:36:41.150Z,18.40
2023-10-19T11:39:13.249Z,18.42
2023-10-19T11:41:42.209Z,18.97
2023-10-19T11:44:13.213Z,19.23
2023-10-19T11:46:42.510Z,19.48
2023-10-19T11:49:11.680Z,20.21
2023-10-19T11:51:40.632Z,19.92
2023-10-19T11:54:09.629Z,20.33
2023-10-19T11:56:38.652Z,20.81
2023-10-19T11:59:09.100Z,20.21
2023-10-19T12:01:38.043Z,20.53
2023-10-19T12:04:07.220Z,21.06
2023-10-19T12:06:36.238Z,21.17
2023-10-19T12:09:16.366Z,21.76
2023-10-19T12:11:48.415Z,21.84
2023-10-19T12:14:17.762Z,22.42
2023-10-19T12:16:46.961Z,21.84
2023-10-19T12:19:18.983Z,22.12
2023-10-19T12:21:47.665Z,21.67
2023-10-19T12:24:16.913Z,21.52
2023-10-19T12:26:46.524Z,21.62
2023-10-19T12:29:18.348Z,21.27
2023-10-19T12:31:48.660Z,21.07
2023-10-19T12:34:18.402Z,20.85
2023-10-19T12:36:48.332Z,20.87
2023-10-19T12:39:37.394Z,20.57
2023-10-19T12:42:06.423Z,20.18
2023-10-19T12:44:43.465Z,19.93
2023-10-19T12:47:17.712Z,19.62
2023-10-19T12:49:47.654Z,19.43
2023-10-19T12:52:17.019Z,19.41
2023-10-19T12:54:49.664Z,19.30
2023-10-19T12:57:18.450Z,19.23
2023-10-19T12:59:47.341Z,19.06
2023-10-19T13:02:16.766Z,18.83
2023-10-19T13:04:48.021Z,19.08
2023-10-19T13:07:18.830Z,19.70
2023-10-19T13:09:47.837Z,20.00
2023-10-19T13:12:16.932Z,20.08
2023-10-19T13:14:46.036Z,20.11
2023-10-19T13:17:15.954Z,19.98
2023-10-19T13:19:45.120Z,19.93
2023-10-19T13:22:16.394Z,19.63
2023-10-19T13:24:45.393Z,19.28
2023-10-19T13:27:15.312Z,18.98
2023-10-19T13:29:44.339Z,18.92
2023-10-19T13:32:13.450Z,18.90
2023-10-19T13:34:46.297Z,18.78
2023-10-19T13:37:15.290Z,18.76
2023-10-19T13:39:44.322Z,18.74
2023-10-19T13:42:13.255Z,18.73
2023-10-19T13:44:42.243Z,18.57
2023-10-19T13:47:13.351Z,18.46
2023-10-19T13:49:42.840Z,18.37
2023-10-19T13:52:11.998Z,18.39
2023-10-19T13:54:40.883Z,18.30
2023-10-19T13:57:11.384Z,18.30
2023-10-19T13:59:40.101Z,18.30
2023-10-19T14:02:09.724Z,18.23
2023-10-19T14:04:38.670Z,18.10
2023-10-19T14:07:07.708Z,18.09
2023-10-19T14:09:37.093Z,17.97
2023-10-19T14:12:06.845Z,17.95
2023-10-19T14:14:36.413Z,17.98
2023-10-19T14:17:06.862Z,17.94
2023-10-19T14:19:35.653Z,17.87
2023-10-19T14:22:04.530Z,17.87
2023-10-19T14:24:33.727Z,17.91
2023-10-19T14:27:03.956Z,17.92
2023-10-19T14:29:32.848Z,17.99
2023-10-19T14:32:02.186Z,17.94
2023-10-19T14:34:31.346Z,17.95
2023-10-19T14:37:00.206Z,17.96
2023-10-19T14:39:29.233Z,17.94
2023-10-19T14:41:58.126Z,17.90
2023-10-19T14:44:28.892Z,17.80
2023-10-19T14:46:57.593Z,17.68
2023-10-19T14:49:26.380Z,17.59
2023-10-19T14:51:55.130Z,17.55
2023-10-19T14:54:24.009Z,17.43
2023-10-19T14:56:52.831Z,17.33
2023-10-19T14:59:21.724Z,17.18
2023-10-19T15:01:50.807Z,17.07
2023-10-19T15:04:19.782Z,17.00
2023-10-19T15:06:48.773Z,16.94
2023-10-19T15:09:21.971Z,16.79
2023-10-19T15:11:50.858Z,16.80
2023-10-19T15:14:19.763Z,16.71
2023-10-19T15:16:48.592Z,16.63
2023-10-19T15:19:20.179Z,16.66
2023-10-19T15:21:50.314Z,16.60
2023-10-19T15:24:19.923Z,16.61
2023-10-19T15:26:48.919Z,16.56
2023-10-19T15:29:17.917Z,16.47
2023-10-19T15:31:48.793Z,16.42
2023-10-19T15:34:21.537Z,16.36
2023-10-19T15:36:50.446Z,16.35
2023-10-19T15:39:19.596Z,16.32
2023-10-19T15:41:48.268Z,16.31
2023-10-19T15:44:18.138Z,16.25
2023-10-19T15:46:49.973Z,16.27
2023-10-19T15:49:19.432Z,16.24
2023-10-19T15:51:49.304Z,16.25
2023-10-19T15:54:18.197Z,16.22
2023-10-19T15:56:47.105Z,16.18
2023-10-19T15:59:16.079Z,16.15
2023-10-19T16:01:45.811Z,16.11
2023-10-19T16:04:14.712Z,16.08
2023-10-19T16:06:45.790Z,16.09
2023-10-19T16:09:14.560Z,16.09
2023-10-19T16:11:47.534Z,16.07
2023-10-19T16:14:20.695Z,16.09
2023-10-19T16:16:49.495Z,16.14
2023-10-19T16:19:22.536Z,16.06
2023-10-19T16:21:53.037Z,15.99
2023-10-19T16:24:21.847Z,15.96
2023-10-19T16:26:50.765Z,15.93
2023-10-19T16:29:20.832Z,15.94
2023-10-19T16:31:50.197Z,15.89
2023-10-19T16:34:19.340Z,15.87
2023-10-19T16:36:49.827Z,15.86
2023-10-19T16:39:19.019Z,15.82
2023-10-19T16:41:50.941Z,15.80
2023-10-19T16:44:20.542Z,15.77
2023-10-19T16:46:49.393Z,15.77
2023-10-19T16:49:19.810Z,15.74
2023-10-19T16:51:48.571Z,15.75
2023-10-19T16:54:17.371Z,15.76
2023-10-19T16:56:48.785Z,15.74
2023-10-19T16:59:18.209Z,15.77
2023-10-19T17:01:47.402Z,15.76
2023-10-19T17:04:18.922Z,15.74
2023-10-19T17:06:47.949Z,15.75
2023-10-19T17:09:21.411Z,15.73
2023-10-19T17:11:56.175Z,15.72
2023-10-19T17:14:25.988Z,15.72
2023-10-19T17:16:55.196Z,15.71
2023-10-19T17:19:24.340Z,15.68
2023-10-19T17:21:56.219Z,15.66
2023-10-19T17:24:26.058Z,15.61
2023-10-19T17:26:54.993Z,15.55
2023-10-19T17:29:23.945Z,15.53
2023-10-19T17:31:53.299Z,15.48
2023-10-19T17:34:22.039Z,15.43
2023-10-19T17:36:50.780Z,15.41
2023-10-19T17:39:19.997Z,15.31
2023-10-19T17:41:49.344Z,15.28
2023-10-19T17:44:19.772Z,15.21
2023-10-19T17:46:50.735Z,15.17
2023-10-19T17:49:21.556Z,15.15
2023-10-19T17:51:50.230Z,15.14
2023-10-19T17:54:20.513Z,15.12
2023-10-19T17:59:19.270Z,15.06
2023-10-19T18:01:49.474Z,15.05
2023-10-19T18:04:19.305Z,15.06
2023-10-19T18:06:48.313Z,15.04
2023-10-19T18:09:17.545Z,14.98
2023-10-19T18:11:46.458Z,14.84
2023-10-19T18:14:15.358Z,14.90
2023-10-19T18:16:44.511Z,14.90
2023-10-19T18:19:15.219Z,14.86
2023-10-19T18:21:46.374Z,14.83
2023-10-19T18:24:15.706Z,14.78
2023-10-19T18:26:50.959Z,14.75
2023-10-19T18:29:20.073Z,14.72
2023-10-19T18:31:57.838Z,14.68
2023-10-19T18:34:27.075Z,14.69
2023-10-19T18:36:56.239Z,14.68
2023-10-19T18:39:30.534Z,14.64
2023-10-19T18:41:59.454Z,14.63
2023-10-19T18:44:33.312Z,14.64
2023-10-19T18:47:02.322Z,14.65
2023-10-19T18:49:31.726Z,14.65
2023-10-19T18:52:01.086Z,14.65
2023-10-19T18:54:29.864Z,14.63
2023-10-19T18:56:59.140Z,14.61
2023-10-19T18:59:28.055Z,14.59
2023-10-19T19:01:59.482Z,14.60
2023-10-19T19:04:40.859Z,14.53
2023-10-19T19:07:12.422Z,14.55
2023-10-19T19:09:41.404Z,14.52
2023-10-19T19:12:10.430Z,14.49
2023-10-19T19:14:39.516Z,14.47
2023-10-19T19:17:10.882Z,14.45
2023-10-19T19:19:42.418Z,14.36
2023-10-19T19:22:11.163Z,14.29
2023-10-19T19:24:39.964Z,14.22
2023-10-19T19:27:11.536Z,14.17
2023-10-19T19:29:41.125Z,14.07
2023-10-19T19:32:10.077Z,14.00
2023-10-19T19:34:40.149Z,13.96
2023-10-19T19:37:08.789Z,13.95
2023-10-19T19:39:37.673Z,13.92
2023-10-19T19:42:07.417Z,13.91
2023-10-19T19:44:38.411Z,13.86
2023-10-19T19:47:09.348Z,13.84
2023-10-19T19:49:38.774Z,13.81
2023-10-19T19:52:08.160Z,13.77
2023-10-19T19:54:39.185Z,13.74
2023-10-19T19:57:07.919Z,13.75
2023-10-19T19:59:36.588Z,13.75
2023-10-19T20:02:05.556Z,13.74
2023-10-19T20:04:34.366Z,13.71
2023-10-19T20:07:03.271Z,13.66
2023-10-19T20:09:32.381Z,13.63
2023-10-19T20:12:01.236Z,13.63
2023-10-19T20:14:29.979Z,13.69
2023-10-19T20:16:59.166Z,13.73
2023-10-19T20:19:27.975Z,13.70
2023-10-19T20:21:56.827Z,13.70
2023-10-19T20:24:28.293Z,13.70
2023-10-19T20:26:57.353Z,13.75
2023-10-19T20:29:26.487Z,13.80
2023-10-19T20:31:55.831Z,13.83
2023-10-19T20:34:27.216Z,13.87
2023-10-19T20:36:56.926Z,13.92
2023-10-19T20:39:26.856Z,14.00
2023-10-19T20:41:56.025Z,14.09
2023-10-19T20:44:26.798Z,14.16
2023-10-19T20:46:56.304Z,14.23
2023-10-19T20:49:25.565Z,14.28
2023-10-19T20:51:54.975Z,14.31
2023-10-19T20:54:24.201Z,14.28
2023-10-19T20:56:53.369Z,14.26
2023-10-19T20:59:23.118Z,14.27
2023-10-19T21:01:52.669Z,14.20
2023-10-19T21:04:22.798Z,14.18
2023-10-19T21:06:52.422Z,14.14
2023-10-19T21:09:21.734Z,14.13
2023-10-19T21:11:51.339Z,14.11
2023-10-19T21:14:20.648Z,14.11
2023-10-19T21:16:50.887Z,14.11
2023-10-19T21:19:35.071Z,14.09
2023-10-19T21:22:05.552Z,14.20
2023-10-19T21:24:37.494Z,14.28
2023-10-19T21:27:07.034Z,14.35
2023-10-19T21:29:36.296Z,14.39
2023-10-19T21:32:06.770Z,14.39
2023-10-19T21:34:37.580Z,14.41
2023-10-19T21:37:07.900Z,14.42
2023-10-19T21:39:37.070Z,14.43
2023-10-19T21:42:06.378Z,14.44
2023-10-19T21:44:38.564Z,14.43
2023-10-19T21:47:08.001Z,14.42
2023-10-19T21:49:36.831Z,14.43
2023-10-19T21:52:05.691Z,14.40
2023-10-19T21:54:35.034Z,14.43
2023-10-19T21:57:04.407Z,14.43
2023-10-19T21:59:33.660Z,14.46
2023-10-19T22:02:02.440Z,14.46
2023-10-19T22:04:31.358Z,14.45
2023-10-19T22:07:00.405Z,14.45
2023-10-19T22:09:32.076Z,14.48
2023-10-19T22:12:02.484Z,14.49
2023-10-19T22:14:32.449Z,14.53
2023-10-19T22:17:01.664Z,14.56
2023-10-19T22:19:30.744Z,14.60
2023-10-19T22:21:59.619Z,14.66
2023-10-19T22:24:30.170Z,14.68
2023-10-19T22:27:00.267Z,14.65
2023-10-19T22:29:29.223Z,14.61
2023-10-19T22:31:59.202Z,14.61
2023-10-19T22:34:28.452Z,14.56
2023-10-19T22:36:57.347Z,14.53
2023-10-19T22:39:26.262Z,14.47
2023-10-19T22:41:56.737Z,14.44
2023-10-19T22:44:25.762Z,14.40
2023-10-19T22:46:54.869Z,14.38
2023-10-19T22:49:24.174Z,14.36
2023-10-19T22:51:53.378Z,14.34
2023-10-19T22:54:23.094Z,14.35
2023-10-19T22:56:52.617Z,14.30
2023-10-19T22:59:21.737Z,14.31
2023-10-19T23:01:50.723Z,14.35
2023-10-19T23:04:20.867Z,14.30
2023-10-19T23:06:50.400Z,14.27
2023-10-19T23:09:28.343Z,14.20
2023-10-19T23:12:09.802Z,14.16
2023-10-19T23:14:38.813Z,14.14
2023-10-19T23:17:10.267Z,14.15
2023-10-19T23:19:44.364Z,14.15
2023-10-19T23:22:15.496Z,14.15
2023-10-19T23:24:45.304Z,14.13
2023-10-19T23:27:14.705Z,14.09
2023-10-19T23:29:47.591Z,14.07
2023-10-19T23:32:19.780Z,14.06
2023-10-19T23:34:49.694Z,14.05
2023-10-19T23:37:19.188Z,14.03
2023-10-19T23:39:47.971Z,14.04
2023-10-19T23:42:17.005Z,14.03
2023-10-19T23:44:48.105Z,14.03
2023-10-19T23:47:18.288Z,14.03
2023-10-19T23:49:47.262Z,14.04
2023-10-19T23:52:17.763Z,14.04
2023-10-19T23:54:48.173Z,14.03
2023-10-19T23:57:19.630Z,14.01
2023-10-19T23:59:49.037Z,14.00
